createdAt,value
2018-04-19T00:01:53.829Z,32.43
2018-04-19T00:04:21.377Z,25.60
2018-04-19T00:06:48.851Z,26.77
2018-04-19T00:09:16.344Z,25.83
2018-04-19T00:11:44.709Z,28.57
2018-04-19T00:14:12.996Z,25.73
2018-04-19T00:16:40.501Z,27.00
2018-04-19T00:19:08.007Z,28.60
2018-04-19T00:21:35.503Z,26.20
2018-04-19T00:24:03.760Z,28.80
2018-04-19T00:26:32.028Z,28.47
2018-04-19T00:29:00.299Z,33.23
2018-04-19T00:31:27.801Z,29.57
2018-04-19T00:33:55.310Z,30.97
2018-04-19T00:36:22.806Z,27.13
2018-04-19T00:38:50.299Z,29.13
2018-04-19T00:41:17.899Z,26.13
2018-04-19T00:43:45.418Z,26.17
2018-04-19T00:46:13.408Z,27.93
2018-04-19T00:48:40.872Z,31.03
2018-04-19T00:51:08.359Z,31.17
2018-04-19T00:53:36.606Z,29.37
2018-04-19T00:56:04.109Z,25.30
2018-04-19T00:58:31.612Z,27.33
2018-04-19T01:00:59.089Z,28.13
2018-04-19T01:03:26.597Z,28.33
2018-04-19T01:05:54.326Z,27.40
2018-04-19T01:08:22.651Z,30.17
2018-04-19T01:10:50.136Z,30.87
2018-04-19T01:13:17.647Z,25.53
2018-04-19T01:15:45.147Z,27.90
2018-04-19T01:18:12.767Z,32.30
2018-04-19T01:20:40.247Z,27.80
2018-04-19T01:23:07.730Z,28.33
2018-04-19T01:25:35.221Z,27.03
2018-04-19T01:28:02.812Z,31.70
2018-04-19T01:30:30.302Z,32.27
2018-04-19T01:32:58.575Z,32.17
2018-04-19T01:35:37.990Z,30.37
2018-04-19T01:38:05.486Z,33.00
2018-04-19T01:40:32.960Z,29.10
2018-04-19T01:43:00.448Z,31.80
2018-04-19T01:45:27.951Z,30.53
2018-04-19T01:47:55.458Z,28.50
2018-04-19T01:50:22.967Z,29.87
2018-04-19T01:52:50.470Z,28.83
2018-04-19T01:55:18.720Z,35.23
2018-04-19T01:57:46.702Z,29.07
2018-04-19T02:00:14.996Z,34.30
2018-04-19T02:02:43.241Z,35.53
2018-04-19T02:05:10.756Z,29.93
2018-04-19T02:07:38.284Z,29.30
2018-04-19T02:10:06.548Z,31.10
2018-04-19T02:12:34.022Z,32.97
2018-04-19T02:15:02.320Z,26.77
2018-04-19T02:17:29.816Z,32.37
2018-04-19T02:19:57.318Z,33.17
2018-04-19T02:22:24.852Z,38.47
2018-04-19T02:24:52.339Z,32.60
2018-04-19T02:27:19.851Z,35.30
2018-04-19T02:29:47.354Z,35.00
2018-04-19T02:32:15.602Z,30.47
2018-04-19T02:34:43.117Z,36.60
2018-04-19T02:37:10.616Z,35.57
2018-04-19T02:39:38.187Z,30.87
2018-04-19T02:42:06.518Z,35.70
2018-04-19T02:44:34.019Z,34.07
2018-04-19T02:47:01.532Z,33.27
2018-04-19T02:49:29.141Z,31.87
2018-04-19T02:51:56.641Z,33.20
2018-04-19T02:54:24.169Z,30.37
2018-04-19T02:56:53.117Z,32.30
2018-04-19T02:59:20.578Z,34.57
2018-04-19T03:01:48.095Z,36.07
2018-04-19T03:04:15.601Z,33.90
2018-04-19T03:06:43.107Z,41.50
2018-04-19T03:09:11.337Z,37.17
2018-04-19T03:11:38.832Z,38.30
2018-04-19T03:14:07.096Z,36.03
2018-04-19T03:16:34.595Z,40.43
2018-04-19T03:19:02.102Z,40.77
2018-04-19T03:21:29.585Z,39.43
2018-04-19T03:23:57.104Z,39.00
2018-04-19T03:26:25.373Z,40.10
2018-04-19T03:28:52.896Z,41.60
2018-04-19T03:31:20.354Z,43.13
2018-04-19T03:33:47.859Z,41.67
2018-04-19T03:36:15.347Z,42.57
2018-04-19T03:38:43.608Z,44.43
2018-04-19T03:41:11.719Z,38.20
2018-04-19T03:43:39.218Z,40.63
2018-04-19T03:46:06.702Z,39.63
2018-04-19T03:48:34.193Z,41.43
2018-04-19T03:51:01.703Z,39.43
2018-04-19T03:53:29.207Z,40.67
2018-04-19T03:55:56.710Z,44.33
2018-04-19T03:58:24.234Z,45.87
2018-04-19T04:00:51.746Z,45.17
2018-04-19T04:03:19.225Z,44.90
2018-04-19T04:05:47.501Z,40.53
2018-04-19T04:08:15.764Z,42.10
2018-04-19T04:10:43.322Z,45.83
2018-04-19T04:13:10.811Z,41.07
2018-04-19T04:15:39.136Z,41.30
2018-04-19T04:21:18.583Z,45.47
2018-04-19T04:23:52.636Z,42.77
2018-04-19T04:26:20.124Z,40.73
2018-04-19T04:28:47.617Z,39.03
2018-04-19T04:31:15.286Z,45.53
2018-04-19T04:33:42.660Z,38.70
2018-04-19T04:36:10.150Z,38.60
2018-04-19T04:38:37.710Z,40.87
2018-04-19T04:41:05.953Z,41.87
2018-04-19T04:43:33.476Z,43.43
2018-04-19T04:46:01.008Z,41.13
2018-04-19T04:48:28.617Z,44.60
2018-04-19T04:50:56.929Z,36.47
2018-04-19T04:53:25.244Z,37.00
2018-04-19T04:55:52.774Z,44.90
2018-04-19T04:58:21.054Z,39.07
2018-04-19T05:00:49.481Z,41.07
2018-04-19T05:03:17.047Z,43.43
2018-04-19T05:05:45.345Z,35.67
2018-04-19T05:08:13.620Z,35.07
2018-04-19T05:10:41.722Z,38.00
2018-04-19T05:13:09.987Z,37.00
2018-04-19T05:15:37.458Z,33.30
2018-04-19T05:18:05.711Z,36.00
2018-04-19T05:20:33.190Z,37.83
2018-04-19T05:23:01.513Z,34.50
2018-04-19T05:25:29.009Z,32.00
2018-04-19T05:27:56.545Z,38.40
2018-04-19T05:30:24.869Z,30.13
2018-04-19T05:32:53.177Z,37.93
2018-04-19T05:35:20.695Z,31.53
2018-04-19T05:37:48.985Z,30.67
2018-04-19T05:40:17.230Z,29.97
2018-04-19T05:42:44.835Z,28.17
2018-04-19T05:45:12.558Z,29.63
2018-04-19T05:47:40.039Z,30.53
2018-04-19T05:50:08.291Z,32.67
2018-04-19T05:52:35.949Z,27.63
2018-04-19T05:55:03.433Z,27.03
2018-04-19T05:57:31.694Z,24.60
2018-04-19T05:59:59.960Z,24.03
2018-04-19T06:02:27.474Z,24.00
2018-04-19T06:04:55.052Z,23.10
2018-04-19T06:07:22.583Z,24.43
2018-04-19T06:09:50.091Z,21.57
2018-04-19T06:12:17.595Z,28.93
2018-04-19T06:14:45.176Z,21.87
2018-04-19T06:17:12.694Z,21.70
2018-04-19T06:19:40.511Z,23.07
2018-04-19T06:22:11.278Z,22.43
2018-04-19T06:24:39.145Z,28.87
2018-04-19T06:27:06.672Z,22.10
2018-04-19T06:29:34.490Z,22.65
2018-04-19T06:32:01.977Z,20.83
2018-04-19T06:34:29.480Z,22.67
2018-04-19T06:36:56.992Z,24.35
2018-04-19T06:39:24.542Z,21.50
2018-04-19T06:41:52.035Z,21.58
2018-04-19T06:44:19.545Z,21.60
2018-04-19T06:46:47.807Z,23.27
2018-04-19T06:49:15.283Z,21.70
2018-04-19T06:51:43.542Z,24.50
2018-04-19T06:54:15.298Z,25.70
2018-04-19T06:56:42.822Z,20.90
2018-04-19T06:59:11.101Z,21.42
2018-04-19T07:01:38.591Z,25.50
2018-04-19T07:04:06.123Z,23.52
2018-04-19T07:06:35.179Z,21.30
2018-04-19T07:09:02.636Z,20.83
2018-04-19T07:11:30.311Z,20.17
2018-04-19T07:13:57.883Z,20.12
2018-04-19T07:16:25.984Z,19.50
2018-04-19T07:18:53.598Z,23.62
2018-04-19T07:21:21.138Z,19.00
2018-04-19T07:23:49.460Z,22.05
2018-04-19T07:26:17.620Z,18.90
2018-04-19T07:28:45.159Z,17.87
2018-04-19T07:31:13.026Z,18.48
2018-04-19T07:33:40.529Z,17.58
2018-04-19T07:36:08.033Z,22.67
2018-04-19T07:38:36.900Z,18.52
2018-04-19T07:41:04.419Z,18.27
2018-04-19T07:43:31.944Z,18.77
2018-04-19T07:46:00.203Z,19.77
2018-04-19T07:48:27.743Z,20.63
2018-04-19T07:50:55.273Z,23.77
2018-04-19T07:53:22.830Z,21.13
2018-04-19T07:55:50.315Z,21.10
2018-04-19T07:58:17.849Z,20.73
2018-04-19T08:00:45.417Z,22.20
2018-04-19T08:03:12.887Z,21.33
2018-04-19T08:05:40.438Z,22.30
2018-04-19T08:08:08.081Z,21.20
2018-04-19T08:10:35.607Z,19.43
2018-04-19T08:13:03.109Z,21.17
2018-04-19T08:15:30.660Z,22.47
2018-04-19T08:17:58.215Z,21.47
2018-04-19T08:20:25.948Z,17.77
2018-04-19T08:22:53.937Z,23.10
2018-04-19T08:25:22.182Z,17.07
2018-04-19T08:27:49.706Z,18.67
2018-04-19T08:30:17.193Z,18.53
2018-04-19T08:32:44.683Z,21.73
2018-04-19T08:35:12.939Z,19.10
2018-04-19T08:37:41.221Z,16.73
2018-04-19T08:40:08.741Z,18.00
2018-04-19T08:42:36.875Z,12.73
2018-04-19T08:45:04.479Z,14.40
2018-04-19T08:47:32.891Z,13.63
2018-04-19T08:50:03.405Z,15.70
2018-04-19T08:52:30.869Z,10.83
2018-04-19T08:54:58.352Z,11.77
2018-04-19T08:57:26.707Z,8.63
2018-04-19T08:59:54.216Z,8.50
2018-04-19T09:02:21.705Z,7.10
2018-04-19T09:04:49.208Z,7.47
2018-04-19T09:07:17.451Z,6.07
2018-04-19T09:09:44.951Z,5.07
2018-04-19T09:12:12.463Z,3.77
2018-04-19T09:14:40.024Z,3.70
2018-04-19T09:17:07.606Z,4.77
2018-04-19T09:19:35.270Z,3.87
2018-04-19T09:22:02.758Z,7.03
2018-04-19T09:24:31.096Z,5.27
2018-04-19T09:27:06.520Z,5.70
2018-04-19T09:39:20.293Z,5.57
2018-04-19T09:41:47.812Z,5.40
2018-04-19T09:44:17.587Z,4.80
2018-04-19T09:46:45.081Z,3.23
2018-04-19T09:49:12.576Z,5.43
2018-04-19T09:51:48.193Z,4.00
2018-04-19T09:54:16.579Z,5.37
2018-04-19T09:56:44.395Z,3.27
2018-04-19T09:59:13.140Z,4.97
2018-04-19T10:01:47.231Z,4.53
2018-04-19T10:04:15.511Z,5.27
2018-04-19T10:06:43.449Z,4.17
2018-04-19T10:09:11.055Z,7.43
2018-04-19T10:11:38.916Z,4.10
2018-04-19T10:14:06.410Z,5.00
2018-04-19T10:16:34.588Z,6.30
2018-04-19T10:19:02.066Z,3.77
2018-04-19T10:21:29.602Z,3.63
2018-04-19T10:23:57.778Z,4.57
2018-04-19T10:26:25.353Z,3.87
2018-04-19T10:28:52.910Z,7.00
2018-04-19T10:31:20.383Z,5.73
2018-04-19T10:33:47.963Z,4.63
2018-04-19T10:36:15.389Z,6.63
2018-04-19T10:38:42.901Z,11.32
2018-04-19T10:41:11.234Z,11.52
2018-04-19T10:43:38.843Z,12.70
2018-04-19T10:46:07.112Z,12.00
2018-04-19T10:48:38.001Z,9.00
2018-04-19T10:51:05.502Z,9.43
2018-04-19T10:53:33.014Z,12.37
2018-04-19T10:56:00.523Z,14.70
2018-04-19T10:58:29.299Z,16.33
2018-04-19T11:00:56.821Z,15.73
2018-04-19T11:03:28.679Z,17.15
2018-04-19T11:28:52.935Z,14.40
2018-04-19T11:31:21.313Z,12.60
2018-04-19T11:33:50.135Z,14.90
2018-04-19T11:36:19.402Z,14.47
2018-04-19T11:38:48.224Z,15.27
2018-04-19T11:41:17.285Z,11.00
2018-04-19T11:43:46.299Z,11.57
2018-04-19T11:46:14.395Z,12.53
2018-04-19T11:48:49.457Z,14.57
2018-04-19T11:51:21.588Z,14.73
2018-04-19T11:53:55.179Z,12.87
2018-04-19T11:56:22.688Z,13.33
2018-04-19T11:58:50.182Z,13.87
2018-04-19T12:01:17.775Z,12.50
2018-04-19T12:03:45.277Z,12.80
2018-04-19T12:06:12.775Z,11.57
2018-04-19T12:08:40.427Z,12.50
2018-04-19T12:11:07.918Z,10.97
2018-04-19T12:13:36.239Z,11.43
2018-04-19T12:16:03.810Z,16.77
2018-04-19T12:18:31.335Z,11.50
2018-04-19T12:20:58.826Z,11.10
2018-04-19T12:23:26.376Z,11.10
2018-04-19T12:25:53.932Z,15.13
2018-04-19T12:28:21.535Z,11.23
2018-04-19T12:30:49.707Z,15.23
2018-04-19T12:33:17.200Z,10.17
2018-04-19T12:35:44.698Z,12.27
2018-04-19T12:38:12.223Z,12.50
2018-04-19T12:40:39.729Z,12.93
2018-04-19T12:43:07.899Z,12.90
2018-04-19T12:45:36.419Z,14.93
2018-04-19T12:48:03.947Z,12.07
2018-04-19T12:50:31.486Z,12.27
2018-04-19T12:52:58.997Z,10.70
2018-04-19T12:55:27.325Z,10.33
2018-04-19T12:57:54.856Z,8.00
2018-04-19T13:00:22.522Z,15.40
2018-04-19T13:02:50.080Z,13.47
2018-04-19T13:05:19.111Z,9.40
2018-04-19T13:07:47.619Z,8.30
2018-04-19T13:10:15.137Z,10.47
2018-04-19T13:12:42.618Z,10.50
2018-04-19T13:15:10.134Z,12.07
2018-04-19T13:17:37.633Z,9.70
2018-04-19T13:20:05.138Z,6.53
2018-04-19T13:22:32.666Z,8.50
2018-04-19T13:25:00.184Z,11.07
2018-04-19T13:27:27.674Z,4.37
2018-04-19T13:29:55.178Z,7.87
2018-04-19T13:32:22.670Z,7.30
2018-04-19T13:34:50.216Z,4.93
2018-04-19T13:37:17.776Z,6.10
2018-04-19T13:39:45.730Z,6.37
2018-04-19T13:42:13.237Z,7.87
2018-04-19T13:44:40.705Z,5.17
2018-04-19T13:47:08.206Z,7.50
2018-04-19T13:49:36.539Z,6.93
2018-04-19T13:52:04.134Z,4.93
2018-04-19T14:07:26.685Z,5.33
2018-04-19T14:09:54.184Z,6.03
2018-04-19T14:12:21.692Z,5.80
2018-04-19T14:14:49.218Z,6.37
2018-04-19T14:17:16.722Z,4.20
2018-04-19T14:19:44.202Z,6.73
2018-04-19T14:22:11.711Z,6.80
2018-04-19T14:24:39.954Z,8.63
2018-04-19T14:27:07.456Z,5.73
2018-04-19T14:29:35.697Z,5.73
2018-04-19T14:32:03.250Z,5.03
2018-04-19T14:34:30.750Z,4.23
2018-04-19T14:36:58.310Z,4.03
2018-04-19T14:39:26.743Z,7.57
2018-04-19T14:41:54.202Z,3.83
2018-04-19T14:44:21.808Z,5.73
2018-04-19T14:46:50.180Z,4.77
2018-04-19T14:49:18.477Z,6.20
2018-04-19T14:51:46.691Z,4.70
2018-04-19T14:54:14.182Z,4.93
2018-04-19T14:56:42.446Z,6.27
2018-04-19T14:59:09.911Z,5.70
2018-04-19T15:01:37.922Z,5.40
2018-04-19T15:04:05.399Z,7.03
2018-04-19T15:06:33.946Z,5.93
2018-04-19T15:09:02.216Z,3.70
2018-04-19T15:11:30.435Z,5.07
2018-04-19T15:13:57.979Z,6.87
2018-04-19T15:16:25.495Z,6.53
2018-04-19T15:18:52.993Z,6.17
2018-04-19T15:21:20.623Z,6.13
2018-04-19T15:23:48.921Z,10.30
2018-04-19T15:26:16.425Z,10.13
2018-04-19T15:28:43.935Z,5.87
2018-04-19T15:31:12.192Z,8.63
2018-04-19T15:33:40.421Z,6.00
2018-04-19T15:36:08.383Z,4.93
2018-04-19T15:38:35.897Z,5.07
2018-04-19T15:41:04.154Z,6.30
2018-04-19T15:43:31.650Z,6.23
2018-04-19T15:45:59.235Z,5.70
2018-04-19T15:48:26.726Z,6.87
2018-04-19T15:50:54.230Z,8.53
2018-04-19T15:53:21.690Z,5.60
2018-04-19T15:55:49.293Z,4.33
2018-04-19T15:58:16.770Z,5.37
2018-04-19T16:00:44.755Z,5.17
2018-04-19T16:03:13.008Z,4.43
2018-04-19T16:05:41.391Z,6.00
2018-04-19T16:08:08.922Z,7.07
2018-04-19T16:10:36.412Z,7.93
2018-04-19T16:13:03.892Z,9.20
2018-04-19T16:15:32.168Z,11.20
2018-04-19T16:17:59.671Z,7.07
2018-04-19T16:20:27.163Z,6.30
2018-04-19T16:22:54.666Z,6.60
2018-04-19T16:25:22.178Z,5.30
2018-04-19T16:27:49.712Z,12.17
2018-04-19T16:30:17.208Z,4.73
2018-04-19T16:32:44.720Z,6.90
2018-04-19T16:35:12.215Z,7.50
2018-04-19T16:37:39.717Z,9.37
2018-04-19T16:40:07.248Z,7.47
2018-04-19T16:42:34.715Z,6.77
2018-04-19T16:45:03.084Z,7.93
2018-04-19T16:47:30.673Z,5.33
2018-04-19T16:49:58.967Z,7.13
2018-04-19T16:52:26.464Z,6.80
2018-04-19T16:54:53.959Z,6.77
2018-04-19T16:57:21.475Z,7.57
2018-04-19T16:59:49.029Z,8.17
2018-04-19T17:02:16.695Z,7.17
2018-04-19T17:04:44.168Z,6.87
2018-04-19T17:07:11.721Z,7.37
2018-04-19T17:09:40.295Z,7.00
2018-04-19T17:12:07.832Z,5.97
2018-04-19T17:14:35.347Z,9.80
2018-04-19T17:17:03.595Z,6.03
2018-04-19T17:19:31.996Z,9.23
2018-04-19T17:21:59.489Z,6.80
2018-04-19T17:24:26.985Z,8.43
2018-04-19T17:26:54.940Z,8.17
2018-04-19T17:29:22.420Z,5.43
2018-04-19T17:31:49.924Z,8.50
2018-04-19T17:34:17.428Z,8.33
2018-04-19T17:36:44.981Z,8.50
2018-04-19T17:39:12.459Z,6.57
2018-04-19T17:41:39.942Z,10.53
2018-04-19T17:44:08.222Z,7.20
2018-04-19T17:46:36.491Z,6.17
2018-04-19T17:49:04.751Z,7.40
2018-04-19T17:51:32.223Z,8.30
2018-04-19T17:54:00.468Z,5.83
2018-04-19T17:56:28.052Z,9.00
2018-04-19T17:58:55.569Z,5.90
2018-04-19T18:01:23.538Z,10.03
2018-04-19T18:03:51.039Z,7.27
2018-04-19T18:06:19.312Z,7.27
2018-04-19T18:08:46.800Z,5.00
2018-04-19T18:11:14.307Z,8.33
2018-04-19T18:13:41.823Z,6.53
2018-04-19T18:16:10.066Z,7.63
2018-04-19T18:18:37.539Z,9.43
2018-04-19T18:21:05.953Z,8.90
2018-04-19T18:23:33.869Z,7.33
2018-04-19T18:26:02.775Z,9.70
2018-04-19T18:28:31.252Z,10.03
2018-04-19T18:30:58.796Z,8.33
2018-04-19T18:33:26.302Z,12.50
2018-04-19T18:35:53.798Z,7.43
2018-04-19T18:38:21.487Z,6.73
2018-04-19T18:40:49.038Z,5.80
2018-04-19T18:43:16.551Z,9.57
2018-04-19T18:45:44.044Z,8.63
2018-04-19T18:48:11.552Z,8.63
2018-04-19T18:50:39.031Z,5.80
2018-04-19T18:53:06.674Z,8.13
2018-04-19T18:55:34.196Z,6.80
2018-04-19T18:58:01.945Z,8.83
2018-04-19T19:00:29.491Z,9.07
2018-04-19T19:02:57.990Z,9.93
2018-04-19T19:05:25.507Z,9.07
2018-04-19T19:07:53.035Z,11.37
2018-04-19T19:10:20.513Z,7.07
2018-04-19T19:12:48.032Z,12.47
2018-04-19T19:18:42.113Z,10.20
2018-04-19T19:21:09.729Z,7.10
2018-04-19T19:23:37.270Z,9.13
2018-04-19T19:26:05.849Z,7.90
2018-04-19T19:28:34.734Z,12.23
2018-04-19T19:31:03.409Z,8.43
2018-04-19T19:33:31.578Z,8.00
2018-04-19T19:36:00.217Z,10.57
2018-04-19T19:38:28.445Z,11.87
2018-04-19T19:40:56.236Z,8.20
2018-04-19T19:43:23.948Z,8.27
2018-04-19T19:45:51.516Z,9.63
2018-04-19T19:48:19.324Z,9.33
2018-04-19T19:50:47.588Z,8.83
2018-04-19T19:53:15.246Z,12.57
2018-04-19T19:55:42.883Z,8.27
2018-04-19T19:58:10.455Z,9.07
2018-04-19T20:00:38.437Z,9.23
2018-04-19T20:03:06.054Z,11.47
2018-04-19T20:05:33.546Z,10.03
2018-04-19T20:08:01.126Z,10.00
2018-04-19T20:10:28.704Z,9.83
2018-04-19T20:12:56.185Z,8.67
2018-04-19T20:15:24.400Z,12.60
2018-04-19T20:17:51.916Z,15.57
2018-04-19T20:20:19.417Z,10.20
2018-04-19T20:22:46.927Z,12.90
2018-04-19T20:25:14.541Z,18.93
2018-04-19T20:27:42.078Z,10.60
2018-04-19T20:30:09.599Z,10.00
2018-04-19T20:32:37.863Z,9.73
2018-04-19T20:35:05.330Z,8.27
2018-04-19T20:37:33.588Z,10.87
2018-04-19T20:40:01.103Z,10.30
2018-04-19T20:42:28.602Z,9.37
2018-04-19T20:44:56.125Z,11.03
2018-04-19T20:47:23.645Z,9.10
2018-04-19T20:49:52.139Z,8.63
2018-04-19T20:52:19.763Z,14.90
2018-04-19T20:54:47.258Z,10.07
2018-04-19T20:57:14.776Z,7.57
2018-04-19T20:59:43.095Z,9.50
2018-04-19T21:02:10.601Z,10.20
2018-04-19T21:04:38.110Z,10.23
2018-04-19T21:07:05.663Z,12.30
2018-04-19T21:09:33.914Z,10.87
2018-04-19T21:12:01.669Z,14.97
2018-04-19T21:14:29.327Z,7.57
2018-04-19T21:16:56.981Z,7.83
2018-04-19T21:19:24.658Z,10.10
2018-04-19T21:21:53.046Z,12.13
2018-04-19T21:24:20.692Z,12.30
2018-04-19T21:26:48.397Z,11.73
2018-04-19T21:29:15.950Z,13.37
2018-04-19T21:31:44.330Z,11.43
2018-04-19T21:34:12.627Z,12.40
2018-04-19T21:36:40.186Z,11.93
2018-04-19T21:39:07.797Z,8.57
2018-04-19T21:41:35.355Z,8.97
2018-04-19T21:44:03.660Z,10.20
2018-04-19T21:46:31.287Z,12.87
2018-04-19T21:48:58.825Z,11.43
2018-04-19T21:51:26.442Z,9.47
2018-04-19T21:53:54.046Z,13.83
2018-04-19T21:56:21.553Z,14.93
2018-04-19T21:58:49.033Z,12.90
2018-04-19T22:01:17.321Z,13.00
2018-04-19T22:03:44.841Z,8.73
2018-04-19T22:06:12.361Z,10.40
2018-04-19T22:08:39.876Z,13.43
2018-04-19T22:11:08.142Z,13.33
2018-04-19T22:13:35.686Z,11.57
2018-04-19T22:16:03.690Z,10.53
2018-04-19T22:18:31.999Z,12.00
2018-04-19T22:20:59.511Z,10.93
2018-04-19T22:23:27.027Z,13.40
2018-04-19T22:25:54.605Z,12.80
2018-04-19T22:28:22.127Z,12.10
2018-04-19T22:30:49.603Z,15.13
2018-04-19T22:33:17.163Z,10.60
2018-04-19T22:35:44.725Z,15.57
2018-04-19T22:38:12.306Z,15.87
2018-04-19T22:40:39.811Z,13.90
2018-04-19T22:43:08.116Z,10.40
2018-04-19T22:45:35.694Z,21.50
2018-04-19T22:48:03.247Z,19.67
2018-04-19T22:50:31.466Z,15.83
2018-04-19T22:52:59.727Z,15.33
2018-04-19T22:55:27.279Z,19.03
2018-04-19T22:57:54.819Z,12.47
2018-04-19T23:00:24.927Z,15.50
2018-04-19T23:02:52.449Z,15.73
2018-04-19T23:05:20.757Z,12.70
2018-04-19T23:07:49.037Z,13.37
2018-04-19T23:10:16.564Z,17.07
2018-04-19T23:12:44.825Z,15.53
2018-04-19T23:15:12.398Z,14.60
2018-04-19T23:17:40.730Z,15.03
2018-04-19T23:20:09.321Z,13.83
2018-04-19T23:22:37.635Z,17.27
2018-04-19T23:25:05.976Z,15.07
2018-04-19T23:27:34.083Z,15.00
2018-04-19T23:30:01.796Z,16.23
2018-04-19T23:32:29.349Z,20.17
2018-04-19T23:34:56.882Z,13.03
2018-04-19T23:37:25.159Z,14.97
2018-04-19T23:39:53.440Z,15.87
2018-04-19T23:42:21.732Z,14.30
2018-04-19T23:44:49.790Z,13.03
2018-04-19T23:47:18.111Z,19.03
2018-04-19T23:49:45.597Z,17.67
2018-04-19T23:52:13.103Z,15.83
2018-04-19T23:54:40.873Z,16.30
2018-04-19T23:57:08.639Z,18.87
2018-04-19T23:59:36.591Z,20.23
